Time;durP1;ratioP1;P1;durP2;ratioP2;P2;SDS_P1;SDS_P2;PMS_P1;PMS_P2;Temp;Humidity;BMP_temperature;BMP_pressure;BME280_temperature;BME280_humidity;BME280_pressure;Samples;Min_cycle;Max_cycle;Signal;HPM_P1;HPM_P2
2023/04/24 00:00:48;;;;;;;2.00;0.90;;;13.80;99.90;;;;;;5034360;28;20248;-66
2023/04/24 00:03:16;;;;;;;1.77;0.53;;;13.90;99.90;;;;;;5034373;28;20210;-66
2023/04/24 00:05:43;;;;;;;0.83;0.60;;;13.90;99.90;;;;;;5034318;28;20232;-65
2023/04/24 00:08:10;;;;;;;1.30;0.70;;;13.90;99.90;;;;;;5034237;28;20599;-66
2023/04/24 00:10:36;;;;;;;1.80;0.50;;;13.90;99.90;;;;;;5033995;28;20621;-66
2023/04/24 00:13:03;;;;;;;1.03;0.60;;;13.90;99.90;;;;;;5034186;28;20210;-67
2023/04/24 00:15:30;;;;;;;1.50;0.90;;;13.90;99.90;;;;;;5034021;28;20237;-66
2023/04/24 00:17:57;;;;;;;1.20;0.80;;;13.90;99.90;;;;;;5034079;28;20242;-66
2023/04/24 00:20:25;;;;;;;1.67;0.70;;;14.00;99.90;;;;;;5033769;28;20210;-67
2023/04/24 00:22:52;;;;;;;0.80;0.60;;;14.00;99.90;;;;;;5033015;28;20206;-67
2023/04/24 00:25:19;;;;;;;2.47;0.67;;;14.00;99.90;;;;;;5033701;28;20233;-66
2023/04/24 00:27:45;;;;;;;2.43;0.97;;;14.10;99.90;;;;;;5033558;28;20206;-66
2023/04/24 00:30:12;;;;;;;3.73;0.77;;;14.10;99.90;;;;;;5033703;28;20234;-66
2023/04/24 00:32:39;;;;;;;1.13;0.73;;;14.00;99.90;;;;;;5033497;28;20205;-65
2023/04/24 00:35:07;;;;;;;1.83;0.70;;;14.10;99.90;;;;;;5033399;28;20234;-66
2023/04/24 00:37:35;;;;;;;2.53;0.60;;;14.10;99.90;;;;;;5033380;28;20224;-66
2023/04/24 00:40:02;;;;;;;1.10;0.93;;;14.20;99.90;;;;;;5033062;28;20293;-66
2023/04/24 00:42:29;;;;;;;2.00;0.93;;;14.20;99.90;;;;;;5033148;28;20210;-66
2023/04/24 00:44:57;;;;;;;1.43;0.80;;;14.20;99.90;;;;;;5033504;28;20222;-66
2023/04/24 00:47:25;;;;;;;1.07;0.77;;;14.20;99.90;;;;;;5033533;28;20571;-66
2023/04/24 00:49:52;;;;;;;1.80;0.60;;;14.20;99.90;;;;;;5033257;28;20234;-65
2023/04/24 00:52:18;;;;;;;1.33;0.53;;;14.30;99.90;;;;;;5033687;28;20202;-66
2023/04/24 00:54:47;;;;;;;1.43;1.07;;;14.30;99.90;;;;;;5033315;28;20226;-66
2023/04/24 00:57:15;;;;;;;1.73;0.80;;;14.30;99.90;;;;;;5033129;28;20679;-66
2023/04/24 00:59:42;;;;;;;2.17;0.87;;;14.30;99.90;;;;;;5033185;28;20682;-65
2023/04/24 01:02:10;;;;;;;1.40;0.70;;;14.30;99.90;;;;;;5033351;28;20221;-66
2023/04/24 01:04:37;;;;;;;1.83;0.80;;;14.30;99.90;;;;;;5033289;28;20554;-66
2023/04/24 01:07:09;;;;;;;3.47;1.30;;;14.30;99.90;;;;;;5033192;28;20313;-66
2023/04/24 01:09:37;;;;;;;1.27;0.70;;;14.30;99.90;;;;;;5032787;28;20226;-65
2023/04/24 01:12:05;;;;;;;0.93;0.63;;;14.30;99.90;;;;;;5033280;28;20210;-66
2023/04/24 01:14:32;;;;;;;2.13;0.50;;;14.30;99.90;;;;;;5033132;28;20210;-66
2023/04/24 01:16:59;;;;;;;3.57;1.00;;;14.30;99.90;;;;;;5033017;28;20206;-66
2023/04/24 01:19:25;;;;;;;1.27;0.90;;;14.30;99.90;;;;;;5032874;28;20206;-66
2023/04/24 01:21:55;;;;;;;0.83;0.63;;;14.30;99.90;;;;;;5032579;28;20641;-65
2023/04/24 01:24:23;;;;;;;2.40;0.87;;;14.30;99.90;;;;;;5032554;28;20210;-66
2023/04/24 01:26:50;;;;;;;1.07;0.53;;;14.30;99.90;;;;;;5032655;28;20206;-65
2023/04/24 01:29:17;;;;;;;1.40;0.67;;;14.20;99.90;;;;;;5032520;28;20719;-65
2023/04/24 01:31:44;;;;;;;0.97;0.60;;;14.20;99.90;;;;;;5032435;28;20217;-66
2023/04/24 01:34:10;;;;;;;1.03;0.63;;;14.10;99.90;;;;;;5032391;28;20252;-65
2023/04/24 01:36:38;;;;;;;3.17;1.23;;;14.10;99.90;;;;;;5032713;28;20717;-65
2023/04/24 01:39:06;;;;;;;1.37;0.73;;;14.10;99.90;;;;;;5033020;28;20292;-66
2023/04/24 01:41:34;;;;;;;1.60;0.77;;;14.20;99.90;;;;;;5032383;28;20415;-66
2023/04/24 01:44:01;;;;;;;1.23;0.43;;;14.10;99.90;;;;;;5032534;28;20237;-67
2023/04/24 01:46:28;;;;;;;1.20;0.50;;;14.10;99.90;;;;;;5032184;28;20233;-67
2023/04/24 01:48:56;;;;;;;0.77;0.43;;;14.20;99.90;;;;;;5032243;28;20236;-67
2023/04/24 01:51:22;;;;;;;1.30;0.80;;;14.20;99.90;;;;;;5032169;28;20210;-67
2023/04/24 01:53:49;;;;;;;1.90;0.80;;;14.10;99.90;;;;;;5032788;28;20647;-67
2023/04/24 01:56:16;;;;;;;1.90;0.80;;;14.00;99.90;;;;;;5034545;28;20664;-65
2023/04/24 01:58:44;;;;;;;2.00;0.70;;;13.90;99.90;;;;;;5034937;28;20221;-66
2023/04/24 02:01:18;;;;;;;1.23;0.70;;;13.90;99.90;;;;;;5035790;28;20500;-66
2023/04/24 02:03:45;;;;;;;2.47;0.80;;;13.70;99.90;;;;;;5035326;28;20218;-66
2023/04/24 02:06:12;;;;;;;2.07;0.47;;;13.60;99.90;;;;;;5033551;28;20226;-66
2023/04/24 02:08:39;;;;;;;0.63;0.47;;;13.60;99.90;;;;;;5032860;28;20209;-66
2023/04/24 02:11:06;;;;;;;1.23;0.60;;;13.70;99.90;;;;;;5032131;28;20206;-66
2023/04/24 02:13:32;;;;;;;1.93;0.90;;;13.70;99.90;;;;;;5032403;28;20203;-66
2023/04/24 02:16:00;;;;;;;2.13;0.60;;;13.70;99.90;;;;;;5033433;28;20226;-66
2023/04/24 02:18:27;;;;;;;1.00;0.60;;;13.70;99.90;;;;;;5033051;28;20413;-66
2023/04/24 02:20:54;;;;;;;1.43;0.87;;;13.70;99.90;;;;;;5033125;28;20256;-67
2023/04/24 02:23:21;;;;;;;1.97;0.50;;;13.60;99.90;;;;;;5032329;28;20740;-65
2023/04/24 02:25:48;;;;;;;1.77;0.70;;;13.60;99.90;;;;;;5031999;28;20230;-66
2023/04/24 02:28:15;;;;;;;1.40;0.50;;;13.60;99.90;;;;;;5031838;28;20597;-66
2023/04/24 02:30:42;;;;;;;0.63;0.37;;;13.60;99.90;;;;;;5031459;28;20232;-67
2023/04/24 02:33:10;;;;;;;0.67;0.53;;;13.50;99.90;;;;;;5031673;28;20205;-67
2023/04/24 02:35:36;;;;;;;2.93;0.60;;;13.40;99.90;;;;;;5031530;28;20586;-67
2023/04/24 02:38:03;;;;;;;2.60;0.70;;;13.40;99.90;;;;;;5031975;28;20207;-67
2023/04/24 02:40:30;;;;;;;0.93;0.67;;;13.50;99.90;;;;;;5031656;28;20206;-67
2023/04/24 02:42:57;;;;;;;1.87;0.63;;;13.60;99.90;;;;;;5031629;28;20233;-67
2023/04/24 02:45:24;;;;;;;1.93;0.43;;;13.60;99.90;;;;;;5031787;28;20226;-66
2023/04/24 02:47:50;;;;;;;2.03;0.70;;;13.70;99.90;;;;;;5034860;28;20233;-66
2023/04/24 02:50:18;;;;;;;1.47;0.77;;;13.70;99.90;;;;;;5035310;28;20724;-66
2023/04/24 02:52:45;;;;;;;1.30;0.70;;;13.70;99.90;;;;;;5035665;28;20569;-66
2023/04/24 02:55:12;;;;;;;2.83;0.67;;;13.70;99.90;;;;;;5035659;28;20252;-67
2023/04/24 02:57:39;;;;;;;2.23;1.13;;;13.70;99.90;;;;;;5035630;28;20209;-66
2023/04/24 03:00:08;;;;;;;2.10;0.50;;;13.80;99.90;;;;;;5035226;28;20213;-66
2023/04/24 03:02:35;;;;;;;2.00;0.60;;;13.90;99.90;;;;;;5035635;28;20287;-67
2023/04/24 03:05:02;;;;;;;0.97;0.80;;;14.00;99.90;;;;;;5035510;28;20237;-67
2023/04/24 03:07:30;;;;;;;1.47;0.40;;;14.00;99.90;;;;;;5035423;28;20213;-65
2023/04/24 03:09:59;;;;;;;2.77;0.73;;;14.10;99.90;;;;;;5035021;28;20329;-66
2023/04/24 03:12:26;;;;;;;1.37;0.53;;;14.10;99.90;;;;;;5035382;28;20217;-66
2023/04/24 03:14:52;;;;;;;1.23;0.63;;;14.10;99.90;;;;;;5035363;28;20564;-66
2023/04/24 03:17:19;;;;;;;1.23;0.70;;;14.10;99.90;;;;;;5035376;28;20217;-66
2023/04/24 03:19:46;;;;;;;2.00;0.70;;;14.00;99.90;;;;;;5035003;28;20210;-67
2023/04/24 03:22:13;;;;;;;1.43;0.70;;;14.00;99.90;;;;;;5035161;28;20206;-66
2023/04/24 03:24:41;;;;;;;1.27;0.60;;;13.90;99.90;;;;;;5034881;28;20213;-66
2023/04/24 03:27:08;;;;;;;1.03;0.40;;;13.80;99.90;;;;;;5034937;28;20209;-67
2023/04/24 03:29:34;;;;;;;1.40;0.53;;;13.70;99.90;;;;;;5034914;28;20712;-66
2023/04/24 03:32:01;;;;;;;0.87;0.60;;;13.70;99.90;;;;;;5034858;28;20233;-66
2023/04/24 03:34:28;;;;;;;1.53;0.50;;;13.60;99.90;;;;;;5035212;28;20213;-66
2023/04/24 03:36:54;;;;;;;2.93;0.57;;;13.60;99.90;;;;;;5034875;28;20242;-67
2023/04/24 03:39:21;;;;;;;2.53;0.93;;;13.50;99.90;;;;;;5034906;28;20206;-67
2023/04/24 03:41:49;;;;;;;1.20;0.80;;;13.40;99.90;;;;;;5034453;28;20207;-67
2023/04/24 03:44:16;;;;;;;3.57;0.97;;;13.40;99.90;;;;;;5034783;28;20233;-67
2023/04/24 03:46:42;;;;;;;1.67;0.63;;;13.30;99.90;;;;;;5034666;28;20226;-67
2023/04/24 03:49:09;;;;;;;1.27;0.60;;;13.20;99.90;;;;;;5034742;28;20206;-66
2023/04/24 03:51:36;;;;;;;0.80;0.50;;;13.20;99.90;;;;;;5034372;28;20237;-67
2023/04/24 03:54:03;;;;;;;2.10;0.60;;;13.20;99.90;;;;;;5034377;28;20271;-68
2023/04/24 03:56:30;;;;;;;1.60;0.60;;;13.10;99.90;;;;;;5034577;28;20238;-68
2023/04/24 03:58:58;;;;;;;6.63;0.83;;;13.20;99.90;;;;;;5033930;28;20563;-66
2023/04/24 04:01:25;;;;;;;1.83;0.40;;;12.90;99.90;;;;;;5033972;28;20210;-66
2023/04/24 04:03:51;;;;;;;1.20;0.60;;;12.80;99.90;;;;;;5034086;28;20215;-67
2023/04/24 04:06:19;;;;;;;2.93;1.00;;;12.80;99.90;;;;;;5034064;28;20234;-66
2023/04/24 04:08:45;;;;;;;3.07;0.70;;;12.80;99.90;;;;;;5033883;28;20206;-67
2023/04/24 04:11:12;;;;;;;1.73;0.67;;;12.70;99.90;;;;;;5033634;28;20737;-68
2023/04/24 04:13:39;;;;;;;1.40;0.50;;;12.80;99.90;;;;;;5034088;28;20214;-67
2023/04/24 04:16:07;;;;;;;2.97;0.50;;;12.80;99.90;;;;;;5033900;28;20740;-67
2023/04/24 04:18:34;;;;;;;7.53;5.03;;;12.80;99.90;;;;;;5034075;28;20206;-66
2023/04/24 04:21:01;;;;;;;2.17;1.33;;;12.90;99.90;;;;;;5033706;28;20234;-66
2023/04/24 04:23:28;;;;;;;3.17;1.00;;;12.90;99.90;;;;;;5033728;28;20666;-66
2023/04/24 04:25:54;;;;;;;1.70;0.63;;;13.00;99.90;;;;;;5033827;28;20254;-67
2023/04/24 04:28:21;;;;;;;2.00;0.87;;;13.00;99.90;;;;;;5033594;28;20234;-67
2023/04/24 04:30:48;;;;;;;2.00;1.10;;;13.10;99.90;;;;;;5033220;28;20302;-66
2023/04/24 04:33:17;;;;;;;2.20;0.73;;;13.20;99.90;;;;;;5033449;28;20591;-67
2023/04/24 04:35:43;;;;;;;1.73;0.80;;;13.20;99.90;;;;;;5033253;28;20267;-67
2023/04/24 04:38:10;;;;;;;0.83;0.57;;;13.20;99.90;;;;;;5033350;28;20206;-67
2023/04/24 04:40:37;;;;;;;1.93;0.90;;;13.30;99.90;;;;;;5033586;28;20213;-68
2023/04/24 04:43:04;;;;;;;3.20;0.93;;;13.30;99.90;;;;;;5033422;28;20210;-67
2023/04/24 04:45:32;;;;;;;3.30;0.90;;;13.40;99.90;;;;;;5033475;28;20241;-66
2023/04/24 04:48:00;;;;;;;3.27;0.83;;;13.20;99.90;;;;;;5033262;28;20210;-67
2023/04/24 04:50:28;;;;;;;2.17;0.70;;;13.10;99.90;;;;;;5032814;28;20229;-67
2023/04/24 04:52:55;;;;;;;1.80;1.13;;;13.00;99.90;;;;;;5033460;28;20233;-66
2023/04/24 04:55:22;;;;;;;3.70;1.53;;;13.00;99.90;;;;;;5033484;28;20314;-66
2023/04/24 04:57:48;;;;;;;1.30;0.70;;;13.00;99.90;;;;;;5034368;28;20574;-66
2023/04/24 05:00:16;;;;;;;2.10;1.10;;;12.90;99.90;;;;;;5037796;28;20210;-66
2023/04/24 05:02:42;;;;;;;3.30;1.57;;;12.90;99.90;;;;;;5041088;28;20218;-66
2023/04/24 05:05:09;;;;;;;3.43;0.93;;;12.90;99.90;;;;;;5041059;28;20234;-66
2023/04/24 05:07:37;;;;;;;3.17;1.10;;;12.90;99.90;;;;;;5035386;28;20202;-66
2023/04/24 05:10:05;;;;;;;2.13;0.80;;;12.90;99.90;;;;;;5032269;28;20280;-67
2023/04/24 05:12:31;;;;;;;3.23;1.90;;;12.90;99.90;;;;;;5033710;28;20293;-66
2023/04/24 05:14:58;;;;;;;2.57;1.33;;;13.00;99.90;;;;;;5033519;28;20234;-67
2023/04/24 05:17:25;;;;;;;3.07;1.20;;;12.90;99.90;;;;;;5033205;28;20344;-66
2023/04/24 05:19:52;;;;;;;2.47;1.00;;;12.90;99.90;;;;;;5032727;28;20670;-66
2023/04/24 05:22:20;;;;;;;2.33;1.13;;;12.90;99.90;;;;;;5032828;28;20210;-66
2023/04/24 05:24:48;;;;;;;3.90;0.93;;;13.00;99.90;;;;;;5033111;28;20226;-66
2023/04/24 05:27:15;;;;;;;5.97;1.57;;;13.10;99.90;;;;;;5033248;28;20217;-66
2023/04/24 05:29:42;;;;;;;6.67;2.10;;;13.10;99.90;;;;;;5032962;28;20209;-66
2023/04/24 05:32:08;;;;;;;6.80;3.60;;;13.20;99.90;;;;;;5032420;28;20238;-67
2023/04/24 05:34:36;;;;;;;1.87;1.33;;;13.30;99.90;;;;;;5032827;28;20212;-67
2023/04/24 05:37:03;;;;;;;3.50;2.47;;;13.30;99.90;;;;;;5033094;28;20210;-67
2023/04/24 05:39:29;;;;;;;2.27;0.93;;;13.40;99.90;;;;;;5032911;28;20213;-66
2023/04/24 05:41:58;;;;;;;2.73;1.20;;;13.50;99.90;;;;;;5032480;28;20460;-66
2023/04/24 05:44:25;;;;;;;3.63;1.43;;;13.40;99.90;;;;;;5032327;28;20256;-67
2023/04/24 05:46:52;;;;;;;1.97;1.33;;;13.40;99.90;;;;;;5032340;28;20705;-66
2023/04/24 05:49:18;;;;;;;1.57;1.27;;;13.50;99.90;;;;;;5032555;28;20233;-66
2023/04/24 05:51:45;;;;;;;1.93;1.20;;;13.40;99.90;;;;;;5032089;28;20634;-66
2023/04/24 05:54:12;;;;;;;1.67;1.20;;;13.50;99.90;;;;;;5032235;28;20214;-66
2023/04/24 05:56:39;;;;;;;1.60;1.40;;;13.60;99.90;;;;;;5032174;28;20234;-66
2023/04/24 05:59:08;;;;;;;3.97;2.10;;;13.60;99.90;;;;;;5033803;28;20207;-67
2023/04/24 06:01:35;;;;;;;1.90;1.27;;;13.60;99.90;;;;;;5036310;28;20198;-66
2023/04/24 06:04:03;;;;;;;1.80;1.50;;;13.60;99.90;;;;;;5042887;28;20289;-67
2023/04/24 06:06:31;;;;;;;1.97;0.87;;;13.70;99.90;;;;;;5041123;28;20324;-67
2023/04/24 06:08:58;;;;;;;2.10;1.20;;;13.60;99.90;;;;;;5047390;28;20278;-66
2023/04/24 06:11:25;;;;;;;2.33;1.03;;;13.70;99.90;;;;;;5048881;28;20223;-67
2023/04/24 06:13:52;;;;;;;1.40;1.10;;;13.80;99.90;;;;;;5048333;28;20615;-67
2023/04/24 06:16:20;;;;;;;7.30;3.90;;;14.10;99.90;;;;;;5043902;28;20257;-67
2023/04/24 06:18:48;;;;;;;2.00;1.40;;;14.40;99.90;;;;;;5033943;28;20325;-65
2023/04/24 06:21:15;;;;;;;0.80;0.80;;;14.60;99.90;;;;;;5033190;28;20206;-66
2023/04/24 06:23:42;;;;;;;2.17;1.20;;;14.50;99.90;;;;;;5034103;28;20210;-66
2023/04/24 06:26:09;;;;;;;1.10;0.93;;;14.40;99.90;;;;;;5033381;28;20233;-66
2023/04/24 06:28:36;;;;;;;2.97;0.90;;;14.20;99.90;;;;;;5032309;28;20206;-67
2023/04/24 06:31:02;;;;;;;2.13;1.20;;;14.20;99.90;;;;;;5031754;28;20236;-66
2023/04/24 06:33:30;;;;;;;1.80;1.40;;;14.20;99.90;;;;;;5032098;28;20226;-67
2023/04/24 06:35:57;;;;;;;2.30;1.40;;;14.40;99.90;;;;;;5031466;28;20266;-67
2023/04/24 06:38:24;;;;;;;2.30;1.30;;;14.50;99.90;;;;;;5031786;28;20202;-67
2023/04/24 06:40:50;;;;;;;3.30;1.20;;;15.40;99.90;;;;;;5031173;28;20210;-66
2023/04/24 06:43:17;;;;;;;2.75;1.20;;;17.90;99.90;;;;;;5031937;28;20305;-67
2023/04/24 06:45:45;;;;;;;2.28;1.10;;;20.50;99.90;;;;;;5031991;28;20576;-68
2023/04/24 06:48:11;;;;;;;4.15;1.13;;;21.70;99.90;;;;;;5031917;28;20218;-67
2023/04/24 06:50:39;;;;;;;3.17;1.13;;;22.30;99.90;;;;;;5031247;28;20222;-68
2023/04/24 06:53:06;;;;;;;0.68;0.60;;;22.30;99.90;;;;;;5031667;28;20256;-68
2023/04/24 06:55:33;;;;;;;1.08;0.90;;;22.10;99.90;;;;;;5031693;28;20226;-68
2023/04/24 06:57:59;;;;;;;1.13;0.85;;;21.70;99.90;;;;;;5031437;28;20684;-67
2023/04/24 07:00:26;;;;;;;2.47;1.00;;;21.60;99.90;;;;;;5031502;28;20218;-68
2023/04/24 07:02:53;;;;;;;2.92;1.02;;;21.20;99.90;;;;;;5031946;28;20214;-68
2023/04/24 07:05:20;;;;;;;1.38;0.90;;;20.60;99.90;;;;;;5031684;28;20233;-68
2023/04/24 07:07:50;;;;;;;1.10;1.00;;;20.30;99.90;;;;;;5031544;28;20207;-69
2023/04/24 07:10:17;;;;;;;1.83;1.30;;;20.90;99.90;;;;;;5031412;28;20298;-67
2023/04/24 07:12:44;;;;;;;2.78;1.90;;;21.90;99.90;;;;;;5031762;28;20212;-67
2023/04/24 07:15:11;;;;;;;1.02;0.80;;;23.40;99.00;;;;;;5031600;28;20264;-67
2023/04/24 07:17:42;;;;;;;1.92;0.73;;;25.00;94.60;;;;;;5031843;28;20210;-67
2023/04/24 07:20:10;;;;;;;1.33;0.68;;;26.30;90.90;;;;;;5031529;28;20305;-67
2023/04/24 07:22:37;;;;;;;1.40;0.80;;;26.80;90.10;;;;;;5031212;28;20205;-67
2023/04/24 07:25:06;;;;;;;1.17;0.95;;;27.30;87.70;;;;;;5031381;28;20230;-68
2023/04/24 07:27:32;;;;;;;2.00;0.82;;;28.60;82.20;;;;;;5031491;28;20260;-68
2023/04/24 07:29:59;;;;;;;1.00;0.70;;;28.90;78.80;;;;;;5031594;28;20210;-68
2023/04/24 07:32:26;;;;;;;1.60;0.90;;;28.10;77.90;;;;;;5031539;28;20728;-68
2023/04/24 07:34:53;;;;;;;1.00;0.90;;;27.10;78.40;;;;;;5061732;22;20288;-60
2023/04/24 07:37:20;;;;;;;1.63;1.05;;;25.90;80.40;;;;;;5120921;27;20313;-59
2023/04/24 07:39:47;;;;;;;2.85;2.40;;;24.70;82.50;;;;;;5100117;27;20250;-60
2023/04/24 07:42:15;;;;;;;1.00;0.90;;;23.50;83.70;;;;;;5096033;28;20235;-59
2023/04/24 07:44:42;;;;;;;2.03;1.10;;;22.40;87.10;;;;;;5096070;28;20695;-59
2023/04/24 07:47:09;;;;;;;4.15;1.02;;;21.20;90.00;;;;;;5095668;28;20234;-59
2023/04/24 07:49:36;;;;;;;1.33;0.82;;;20.20;91.50;;;;;;5095667;28;20208;-59
2023/04/24 07:52:04;;;;;;;2.17;0.75;;;19.30;91.80;;;;;;5097075;28;20319;-67
2023/04/24 07:54:30;;;;;;;1.45;1.10;;;18.80;91.70;;;;;;5096983;28;20208;-61
2023/04/24 07:56:57;;;;;;;0.90;0.88;;;19.00;92.40;;;;;;5096673;28;20224;-61
2023/04/24 07:59:26;;;;;;;1.90;1.30;;;20.40;91.30;;;;;;5095867;28;20204;-59
2023/04/24 08:01:53;;;;;;;2.40;0.88;;;21.50;90.10;;;;;;5095794;28;20204;-59
2023/04/24 08:04:21;;;;;;;1.67;0.90;;;21.70;86.40;;;;;;5095635;28;20583;-59
2023/04/24 08:06:48;;;;;;;0.88;0.73;;;21.30;85.80;;;;;;5095573;28;20227;-59
2023/04/24 08:09:15;;;;;;;2.95;1.35;;;20.60;86.40;;;;;;5095859;28;20214;-59
2023/04/24 08:11:42;;;;;;;1.67;1.20;;;19.80;87.90;;;;;;5095598;28;20318;-60
2023/04/24 08:14:09;;;;;;;3.75;1.50;;;19.20;89.10;;;;;;5095455;28;20247;-59
2023/04/24 08:16:37;;;;;;;1.50;1.17;;;18.90;90.00;;;;;;5095158;28;20278;-60
2023/04/24 08:19:04;;;;;;;1.13;0.75;;;18.80;90.80;;;;;;5095679;28;20640;-59
2023/04/24 08:21:31;;;;;;;2.60;1.05;;;18.90;89.20;;;;;;5095190;28;20224;-60
2023/04/24 08:23:58;;;;;;;2.80;1.20;;;18.80;90.70;;;;;;5095440;28;20204;-59
2023/04/24 08:26:25;;;;;;;1.27;0.93;;;18.60;91.60;;;;;;5096828;28;20594;-65
2023/04/24 08:28:52;;;;;;;1.45;0.90;;;18.60;92.30;;;;;;5103184;28;20208;-59
2023/04/24 08:31:19;;;;;;;1.58;1.23;;;18.50;92.20;;;;;;5093318;28;20345;-60
2023/04/24 08:33:47;;;;;;;1.02;0.88;;;18.30;92.30;;;;;;5094264;28;20234;-62
2023/04/24 08:36:14;;;;;;;2.97;1.00;;;18.30;92.50;;;;;;5093899;28;20232;-62
2023/04/24 08:38:41;;;;;;;1.50;1.00;;;18.30;92.90;;;;;;5107651;28;20211;-61
2023/04/24 08:41:10;;;;;;;1.75;1.10;;;18.00;92.90;;;;;;5113619;28;20225;-60
2023/04/24 08:43:39;;;;;;;1.20;1.00;;;17.80;93.00;;;;;;5113987;28;20210;-62
2023/04/24 08:46:06;;;;;;;1.45;0.93;;;17.50;92.80;;;;;;5114177;28;20319;-60
2023/04/24 08:48:33;;;;;;;3.67;1.58;;;17.30;91.80;;;;;;5113904;28;20206;-62
2023/04/24 08:51:03;;;;;;;2.35;1.08;;;17.30;92.00;;;;;;5098306;28;20215;-61
2023/04/24 08:53:33;;;;;;;2.80;1.42;;;17.40;92.00;;;;;;5094109;28;20207;-61
2023/04/24 08:56:01;;;;;;;1.67;1.00;;;17.60;92.30;;;;;;5093731;28;20235;-64
2023/04/24 08:58:28;;;;;;;2.42;1.10;;;17.70;90.90;;;;;;5094245;28;20204;-61
2023/04/24 09:00:56;;;;;;;2.40;1.00;;;17.60;90.60;;;;;;5095281;28;20215;-61
2023/04/24 09:03:23;;;;;;;2.65;1.17;;;17.60;88.10;;;;;;5093429;28;20212;-61
2023/04/24 09:05:51;;;;;;;0.90;0.75;;;17.70;89.60;;;;;;5094591;28;20234;-61
2023/04/24 09:08:20;;;;;;;1.77;0.80;;;17.70;87.70;;;;;;5093758;28;20595;-61
2023/04/24 09:10:47;;;;;;;1.65;1.00;;;17.60;88.40;;;;;;5093117;28;20291;-60
2023/04/24 09:13:15;;;;;;;2.00;1.02;;;17.60;89.10;;;;;;5094432;28;20238;-60
2023/04/24 09:15:42;;;;;;;3.05;1.00;;;17.50;88.30;;;;;;5112967;28;20238;-61
2023/04/24 09:18:09;;;;;;;2.67;0.65;;;17.50;88.10;;;;;;5113660;28;20207;-61
2023/04/24 09:20:36;;;;;;;1.60;0.93;;;17.60;87.60;;;;;;5113694;28;20211;-61
2023/04/24 09:23:03;;;;;;;0.98;0.85;;;17.80;87.20;;;;;;5113602;28;20720;-61
2023/04/24 09:25:35;;;;;;;4.03;1.20;;;17.80;85.80;;;;;;5112296;28;20226;-61
2023/04/24 09:28:03;;;;;;;1.55;0.85;;;17.80;87.30;;;;;;5113670;28;20674;-61
2023/04/24 09:30:31;;;;;;;1.40;0.68;;;18.00;87.90;;;;;;5113221;28;20257;-61
2023/04/24 09:33:11;;;;;;;4.72;3.92;;;18.20;88.10;;;;;;5113704;28;20219;-61
2023/04/24 09:35:41;;;;;;;3.75;1.67;;;18.30;87.50;;;;;;5112800;28;20233;-61
2023/04/24 09:38:08;;;;;;;1.00;0.90;;;18.30;86.80;;;;;;5106729;28;20522;-60
2023/04/24 09:40:36;;;;;;;4.47;0.80;;;18.20;87.10;;;;;;5092806;28;20231;-60
2023/04/24 09:43:03;;;;;;;1.63;1.00;;;17.90;86.30;;;;;;5092641;28;20624;-60
2023/04/24 09:45:36;;;;;;;2.83;1.13;;;17.70;88.10;;;;;;5092442;28;20910;-60
2023/04/24 09:48:04;;;;;;;1.40;0.90;;;17.60;89.30;;;;;;5092098;28;20200;-61
2023/04/24 09:50:34;;;;;;;2.00;0.80;;;17.50;92.10;;;;;;5099937;28;20210;-60
2023/04/24 09:53:04;;;;;;;1.92;0.90;;;17.30;91.00;;;;;;5113256;28;20258;-60
2023/04/24 09:55:31;;;;;;;3.15;0.70;;;17.00;90.90;;;;;;5112125;28;20482;-60
2023/04/24 09:58:04;;;;;;;2.70;1.58;;;17.10;90.60;;;;;;5113383;28;20215;-60
2023/04/24 10:00:33;;;;;;;1.30;0.90;;;17.30;90.40;;;;;;5113492;28;20204;-61
2023/04/24 10:03:01;;;;;;;2.05;0.93;;;17.50;90.40;;;;;;5112186;28;20211;-60
2023/04/24 10:05:31;;;;;;;2.88;0.77;;;17.70;88.50;;;;;;5113727;28;20227;-60
2023/04/24 10:07:59;;;;;;;3.25;1.10;;;18.00;88.60;;;;;;5113470;28;20203;-60
2023/04/24 10:10:26;;;;;;;2.88;0.95;;;18.40;89.20;;;;;;5113033;28;20227;-60
2023/04/24 10:12:54;;;;;;;1.67;0.80;;;18.90;88.00;;;;;;5112670;28;20601;-61
2023/04/24 10:15:22;;;;;;;4.78;1.13;;;18.90;87.40;;;;;;5112201;28;20742;-60
2023/04/24 10:17:53;;;;;;;1.15;0.80;;;18.50;87.30;;;;;;5111991;28;20667;-60
2023/04/24 10:20:22;;;;;;;4.80;1.20;;;18.00;86.60;;;;;;5112204;28;20934;-60
2023/04/24 10:22:53;;;;;;;2.83;1.42;;;17.70;87.60;;;;;;5111801;28;20204;-61
2023/04/24 10:25:21;;;;;;;1.55;1.05;;;17.30;88.10;;;;;;5112102;28;20227;-60
2023/04/24 10:27:49;;;;;;;1.70;0.93;;;17.10;87.60;;;;;;5112581;28;20582;-60
2023/04/24 10:30:17;;;;;;;1.98;0.90;;;16.90;86.70;;;;;;5113023;28;20214;-59
2023/04/24 10:32:46;;;;;;;1.45;1.00;;;17.20;87.30;;;;;;5111878;28;20219;-60
2023/04/24 10:35:15;;;;;;;2.95;0.80;;;17.50;87.90;;;;;;5112432;28;20324;-60
2023/04/24 10:37:45;;;;;;;1.83;0.95;;;17.70;88.10;;;;;;5112433;28;20774;-60
2023/04/24 10:40:16;;;;;;;1.40;1.00;;;17.70;86.60;;;;;;5112370;28;20199;-60
2023/04/24 10:42:43;;;;;;;3.13;1.40;;;17.60;85.60;;;;;;5112021;28;20600;-59
2023/04/24 10:45:18;;;;;;;3.75;1.23;;;17.20;84.80;;;;;;5112332;28;20311;-59
2023/04/24 10:47:52;;;;;;;1.90;1.17;;;16.80;86.30;;;;;;5111822;28;20229;-62
2023/04/24 10:50:19;;;;;;;3.28;1.00;;;16.60;86.80;;;;;;5112554;28;20290;-62
2023/04/24 10:52:46;;;;;;;1.45;1.08;;;16.40;87.90;;;;;;5112607;28;20234;-61
2023/04/24 10:55:15;;;;;;;3.30;1.98;;;16.30;88.60;;;;;;5111787;28;20220;-60
2023/04/24 10:58:02;;;;;;;1.42;0.90;;;16.20;89.00;;;;;;5112463;28;20207;-60
2023/04/24 11:00:29;;;;;;;3.00;0.80;;;16.10;89.00;;;;;;5113042;28;20226;-61
2023/04/24 11:02:58;;;;;;;1.43;1.00;;;15.80;90.40;;;;;;5125034;28;20207;-59
2023/04/24 11:05:51;;;;;;;1.13;1.03;;;15.60;90.80;;;;;;5125785;28;20313;-59
2023/04/24 11:08:28;;;;;;;1.73;1.03;;;15.40;91.20;;;;;;5114523;28;20207;-62
2023/04/24 11:11:00;;;;;;;4.00;1.20;;;15.30;91.30;;;;;;5116113;28;20204;-63
2023/04/24 11:13:29;;;;;;;1.57;1.13;;;15.30;91.10;;;;;;5116171;28;20224;-61
2023/04/24 11:16:16;;;;;;;1.83;1.20;;;15.50;91.20;;;;;;5115716;28;20223;-61
2023/04/24 11:18:50;;;;;;;1.10;1.00;;;15.80;90.70;;;;;;5117142;28;20736;-61
2023/04/24 11:21:18;;;;;;;2.13;0.90;;;16.00;90.10;;;;;;5116842;28;20210;-61
2023/04/24 11:23:45;;;;;;;3.22;1.15;;;16.40;89.80;;;;;;5117111;28;20210;-61
2023/04/24 11:26:14;;;;;;;3.95;1.23;;;16.70;89.40;;;;;;5113732;28;20215;-65
2023/04/24 11:28:51;;;;;;;2.70;1.23;;;17.30;89.30;;;;;;5115491;28;20551;-63
2023/04/24 11:31:38;;;;;;;1.05;0.80;;;17.60;86.50;;;;;;5116379;28;20675;-59
2023/04/24 11:34:11;;;;;;;1.13;0.85;;;17.80;87.80;;;;;;5115933;28;20281;-62
2023/04/24 11:36:39;;;;;;;3.03;1.00;;;17.80;87.10;;;;;;5115630;28;20734;-63
2023/04/24 11:39:06;;;;;;;3.38;0.90;;;17.80;86.80;;;;;;5115581;28;20261;-64
2023/04/24 11:41:34;;;;;;;1.08;0.70;;;17.90;86.70;;;;;;5115423;28;20218;-63
2023/04/24 11:44:03;;;;;;;1.15;0.95;;;17.90;84.70;;;;;;5115265;28;20200;-60
2023/04/24 11:46:31;;;;;;;2.83;0.95;;;18.10;84.50;;;;;;5115108;28;20724;-61
2023/04/24 11:48:59;;;;;;;3.88;1.88;;;18.30;84.70;;;;;;5116364;28;20203;-60
2023/04/24 11:51:28;;;;;;;4.20;1.10;;;18.50;83.20;;;;;;5115773;28;20212;-60
2023/04/24 11:53:56;;;;;;;1.48;1.10;;;18.70;83.60;;;;;;5115895;28;20219;-60
2023/04/24 11:56:23;;;;;;;1.20;1.10;;;18.70;82.80;;;;;;5116106;28;20250;-60
2023/04/24 11:58:53;;;;;;;1.33;1.23;;;18.80;83.00;;;;;;5115723;28;20268;-60
2023/04/24 12:01:20;;;;;;;1.83;1.20;;;18.70;82.30;;;;;;5115481;28;20196;-61
2023/04/24 12:03:50;;;;;;;1.90;1.10;;;18.70;83.60;;;;;;5115086;28;20208;-60
2023/04/24 12:06:18;;;;;;;1.42;1.10;;;18.60;84.20;;;;;;5115747;28;20243;-60
2023/04/24 12:08:48;;;;;;;2.15;1.10;;;18.40;85.50;;;;;;5115560;28;20739;-60
2023/04/24 12:11:20;;;;;;;1.20;1.10;;;18.00;86.90;;;;;;5115429;28;20253;-60
2023/04/24 12:13:47;;;;;;;2.15;1.20;;;17.70;88.40;;;;;;5115355;28;20223;-61
2023/04/24 12:16:14;;;;;;;4.40;1.63;;;17.50;90.20;;;;;;5115248;28;20238;-61
2023/04/24 12:18:45;;;;;;;1.83;0.85;;;17.60;89.20;;;;;;5115129;28;20214;-59
2023/04/24 12:21:19;;;;;;;1.90;1.00;;;17.70;87.70;;;;;;5115209;28;20551;-59
2023/04/24 12:23:48;;;;;;;1.08;0.93;;;18.00;86.60;;;;;;5115201;28;20199;-60
2023/04/24 12:26:18;;;;;;;1.20;0.93;;;18.30;86.10;;;;;;5115176;28;20220;-60
2023/04/24 12:28:48;;;;;;;0.98;0.88;;;18.50;85.00;;;;;;5115162;28;20252;-60
2023/04/24 12:31:15;;;;;;;1.02;0.90;;;18.40;84.90;;;;;;5115211;28;20555;-60
2023/04/24 12:33:42;;;;;;;1.52;0.90;;;18.40;85.20;;;;;;5115313;28;20231;-60
2023/04/24 12:36:12;;;;;;;1.20;1.10;;;18.30;85.10;;;;;;5114752;28;20692;-60
2023/04/24 12:38:40;;;;;;;1.40;1.08;;;18.30;85.80;;;;;;5115074;28;20210;-60
2023/04/24 12:41:11;;;;;;;3.20;1.33;;;18.30;86.70;;;;;;5114827;28;20693;-60
2023/04/24 12:43:38;;;;;;;1.95;1.13;;;18.00;89.30;;;;;;5115095;28;20667;-60
2023/04/24 12:46:05;;;;;;;2.25;1.30;;;17.70;91.80;;;;;;5115724;28;20224;-59
2023/04/24 12:48:33;;;;;;;2.20;1.48;;;17.40;93.30;;;;;;5115547;28;20277;-59
2023/04/24 12:51:01;;;;;;;2.63;1.40;;;17.10;94.10;;;;;;5115232;28;20208;-59